createdAt,value
2019-01-17T00:02:22.639Z,97371.70
2019-01-17T00:05:15.675Z,97371.70
2019-01-17T00:08:09.155Z,97366.06
2019-01-17T00:11:08.346Z,97360.17
2019-01-17T00:14:10.492Z,97350.09
2019-01-17T00:16:59.389Z,97345.47
2019-01-17T00:19:58.629Z,97338.70
2019-01-17T00:22:47.445Z,97339.01
2019-01-17T00:25:37.993Z,97341.88
2019-01-17T00:28:28.096Z,97331.63
2019-01-17T00:31:17.464Z,97336.69
2019-01-17T00:34:22.814Z,97330.64
2019-01-17T00:37:11.765Z,97318.84
2019-01-17T00:40:03.475Z,97317.20
2019-01-17T00:43:05.885Z,97322.08
2019-01-17T00:46:02.034Z,97324.23
2019-01-17T00:48:43.883Z,97307.37
2019-01-17T00:51:34.172Z,97305.52
2019-01-17T00:54:25.367Z,97309.53
2019-01-17T00:57:09.036Z,97310.71
2019-01-17T01:00:02.247Z,97306.39
2019-01-17T01:02:44.583Z,97311.58
2019-01-17T01:05:33.466Z,97307.56
2019-01-17T01:08:29.894Z,97301.12
2019-01-17T01:11:13.340Z,97288.98
2019-01-17T01:14:02.680Z,97296.80
2019-01-17T01:17:20.360Z,97287.20
2019-01-17T01:20:18.119Z,97283.12
2019-01-17T01:23:10.891Z,97282.09
2019-01-17T01:26:01.265Z,97280.16
2019-01-17T01:28:41.548Z,97271.91
2019-01-17T01:31:29.392Z,97266.80
2019-01-17T01:34:18.042Z,97270.38
2019-01-17T01:37:06.720Z,97265.03
2019-01-17T01:39:58.648Z,97263.15
2019-01-17T01:42:52.728Z,97259.45
2019-01-17T01:46:04.050Z,97259.45
2019-01-17T01:48:53.000Z,97248.63
2019-01-17T01:51:46.125Z,97241.33
2019-01-17T01:54:22.024Z,97238.89
2019-01-17T01:56:50.281Z,97241.87
2019-01-17T01:59:21.643Z,97237.03
2019-01-17T02:01:55.180Z,97233.02
2019-01-17T02:04:26.410Z,97231.69
2019-01-17T02:06:57.690Z,97229.84
2019-01-17T02:09:28.832Z,97230.35
2019-01-17T02:12:00.094Z,97224.84
2019-01-17T02:14:31.805Z,97223.44
2019-01-17T02:17:03.818Z,97215.92
2019-01-17T02:19:35.115Z,97223.82
2019-01-17T02:22:06.583Z,97208.37
2019-01-17T02:24:37.927Z,97201.91
2019-01-17T02:27:09.306Z,97204.59
2019-01-17T02:29:42.307Z,97204.59
2019-01-17T02:32:13.647Z,97213.13
2019-01-17T02:34:45.101Z,97205.86
2019-01-17T02:37:16.470Z,97206.88
2019-01-17T02:39:47.599Z,97195.00
2019-01-17T02:42:19.728Z,97200.34
2019-01-17T02:44:50.955Z,97198.57
2019-01-17T02:47:22.128Z,97198.88
2019-01-17T02:49:53.507Z,97194.94
2019-01-17T02:52:24.793Z,97183.73
2019-01-17T02:54:56.498Z,97195.84
2019-01-17T02:57:29.892Z,97200.97
2019-01-17T03:00:01.116Z,97196.20
2019-01-17T03:02:33.357Z,97204.30
2019-01-17T03:05:04.815Z,97200.74
2019-01-17T03:07:36.231Z,97194.00
2019-01-17T03:10:11.061Z,97196.50
2019-01-17T03:12:42.254Z,97194.59
2019-01-17T03:15:13.649Z,97195.10
2019-01-17T03:17:44.872Z,97196.95
2019-01-17T03:20:16.323Z,97190.58
2019-01-17T03:22:47.554Z,97191.23
2019-01-17T03:25:20.056Z,97186.77
2019-01-17T03:27:52.026Z,97183.59
2019-01-17T03:30:23.269Z,97174.59
2019-01-17T03:32:57.590Z,97170.89
2019-01-17T03:35:28.775Z,97173.94
2019-01-17T03:38:01.200Z,97163.89
2019-01-17T03:40:32.393Z,97165.09
2019-01-17T03:43:03.650Z,97156.77
2019-01-17T03:45:37.115Z,97149.63
2019-01-17T03:48:08.536Z,97155.36
2019-01-17T03:50:39.960Z,97157.28
2019-01-17T03:53:11.230Z,97158.09
2019-01-17T03:55:42.620Z,97152.81
2019-01-17T03:58:14.014Z,97149.63
2019-01-17T04:00:45.483Z,97149.97
2019-01-17T04:03:16.663Z,97152.20
2019-01-17T04:05:48.101Z,97158.06
2019-01-17T04:08:19.287Z,97167.59
2019-01-17T04:10:53.243Z,97159.37
2019-01-17T04:13:24.272Z,97150.45
2019-01-17T04:15:55.950Z,97172.30
2019-01-17T04:18:27.044Z,97171.34
2019-01-17T04:20:59.869Z,97158.92
2019-01-17T04:23:31.319Z,97160.02
2019-01-17T04:26:02.659Z,97156.22
2019-01-17T04:28:33.995Z,97166.13
2019-01-17T04:31:06.432Z,97162.11
2019-01-17T04:33:38.506Z,97144.27
2019-01-17T04:36:09.732Z,97156.00
2019-01-17T04:38:41.163Z,97151.92
2019-01-17T04:41:13.197Z,97156.70
2019-01-17T04:43:44.352Z,97172.88
2019-01-17T04:46:15.648Z,97154.73
2019-01-17T04:48:46.943Z,97153.53
2019-01-17T04:51:20.423Z,97164.41
2019-01-17T04:53:52.131Z,97163.56
2019-01-17T04:56:23.402Z,97166.36
2019-01-17T04:58:54.793Z,97170.16
2019-01-17T05:01:25.950Z,97167.97
2019-01-17T05:03:57.535Z,97165.87
2019-01-17T05:06:28.948Z,97159.63
2019-01-17T05:09:00.339Z,97155.92
2019-01-17T05:11:32.733Z,97158.17
2019-01-17T05:14:04.090Z,97154.09
2019-01-17T05:16:35.194Z,97155.88
2019-01-17T05:19:06.577Z,97156.70
2019-01-17T05:21:38.189Z,97162.77
2019-01-17T05:24:09.263Z,97161.88
2019-01-17T05:26:40.663Z,97172.71
2019-01-17T05:29:12.030Z,97165.99
2019-01-17T05:31:43.238Z,97163.77
2019-01-17T05:34:14.515Z,97157.33
2019-01-17T05:36:45.848Z,97155.09
2019-01-17T05:39:18.304Z,97152.56
2019-01-17T05:41:49.731Z,97148.00
2019-01-17T05:44:20.973Z,97148.06
2019-01-17T05:46:53.053Z,97146.27
2019-01-17T05:49:24.209Z,97139.36
2019-01-17T05:51:58.750Z,97119.84
2019-01-17T05:54:30.001Z,97119.84
2019-01-17T05:57:01.094Z,97137.59
2019-01-17T05:59:32.319Z,97144.32
2019-01-17T06:02:03.554Z,97149.44
2019-01-17T06:04:36.333Z,97138.72
2019-01-17T06:07:08.159Z,97137.17
2019-01-17T06:09:39.395Z,97142.53
2019-01-17T06:12:10.688Z,97133.91
2019-01-17T06:14:42.159Z,97140.06
2019-01-17T06:17:13.534Z,97133.73
2019-01-17T06:19:44.708Z,97128.03
2019-01-17T06:22:15.913Z,97138.08
2019-01-17T06:24:47.048Z,97132.26
2019-01-17T06:27:18.233Z,97141.45
2019-01-17T06:29:51.906Z,97136.81
2019-01-17T06:32:23.400Z,97137.97
2019-01-17T06:34:55.058Z,97142.29
2019-01-17T06:37:26.346Z,97144.05
2019-01-17T06:39:57.389Z,97143.98
2019-01-17T06:42:28.787Z,97149.34
2019-01-17T06:45:01.697Z,97152.09
2019-01-17T06:47:33.387Z,97152.61
2019-01-17T06:50:05.847Z,97161.98
2019-01-17T06:52:37.460Z,97159.83
2019-01-17T06:55:08.870Z,97162.97
2019-01-17T06:57:39.896Z,97162.69
2019-01-17T07:00:13.265Z,97163.21
2019-01-17T07:02:45.905Z,97175.33
2019-01-17T07:05:17.365Z,97164.45
2019-01-17T07:07:48.732Z,97173.37
2019-01-17T07:10:19.766Z,97175.05
2019-01-17T07:12:50.831Z,97174.64
2019-01-17T07:15:22.093Z,97177.92
2019-01-17T07:17:53.262Z,97178.86
2019-01-17T07:20:24.482Z,97176.75
2019-01-17T07:22:55.621Z,97176.59
2019-01-17T07:25:26.842Z,97184.97
2019-01-17T07:27:58.065Z,97191.67
2019-01-17T07:30:29.173Z,97180.48
2019-01-17T07:33:00.322Z,97175.20
2019-01-17T07:35:31.468Z,97175.94
2019-01-17T07:38:02.526Z,97174.90
2019-01-17T07:40:33.490Z,97165.67
2019-01-17T07:43:04.767Z,97167.73
2019-01-17T07:45:35.977Z,97172.38
2019-01-17T07:48:07.025Z,97186.72
2019-01-17T07:50:38.173Z,97189.45
2019-01-17T07:53:09.470Z,97194.66
2019-01-17T07:55:40.844Z,97187.48
2019-01-17T07:58:11.854Z,97190.69
2019-01-17T08:00:43.266Z,97186.39
2019-01-17T08:03:14.447Z,97182.13
2019-01-17T08:05:45.655Z,97184.69
2019-01-17T08:08:17.526Z,97187.59
2019-01-17T08:10:49.582Z,97186.39
2019-01-17T08:13:20.806Z,97191.04
2019-01-17T08:15:51.801Z,97193.27
2019-01-17T08:18:23.083Z,97186.40
2019-01-17T08:20:54.061Z,97191.56
2019-01-17T08:23:26.377Z,97190.01
2019-01-17T08:25:57.614Z,97193.27
2019-01-17T08:28:28.881Z,97190.17
2019-01-17T08:31:00.150Z,97183.36
2019-01-17T08:33:31.584Z,97181.41
2019-01-17T08:36:02.742Z,97195.59
2019-01-17T08:38:34.043Z,97188.76
2019-01-17T08:41:05.916Z,97187.20
2019-01-17T08:43:37.008Z,97193.41
2019-01-17T08:46:07.963Z,97186.40
2019-01-17T08:48:39.367Z,97193.87
2019-01-17T08:51:10.710Z,97189.53
2019-01-17T08:53:42.063Z,97184.67
2019-01-17T08:56:13.270Z,97187.27
2019-01-17T08:58:45.080Z,97181.72
2019-01-17T09:01:16.748Z,97184.09
2019-01-17T09:03:48.470Z,97188.80
2019-01-17T09:06:19.837Z,97186.53
2019-01-17T09:08:51.278Z,97180.80
2019-01-17T09:11:22.787Z,97180.36
2019-01-17T09:13:54.000Z,97175.88
2019-01-17T09:16:25.385Z,97176.77
2019-01-17T09:18:56.857Z,97176.09
2019-01-17T09:21:28.064Z,97168.72
2019-01-17T09:23:59.438Z,97165.30
2019-01-17T09:26:30.677Z,97159.76
2019-01-17T09:29:01.651Z,97164.75
2019-01-17T09:31:32.866Z,97177.48
2019-01-17T09:34:04.112Z,97173.67
2019-01-17T09:36:35.124Z,97173.47
2019-01-17T09:39:08.956Z,97176.43
2019-01-17T09:41:40.163Z,97178.42
2019-01-17T09:44:11.606Z,97189.16
2019-01-17T09:46:42.977Z,97198.95
2019-01-17T09:49:14.088Z,97194.05
2019-01-17T09:51:45.280Z,97190.08
2019-01-17T09:54:16.231Z,97193.95
2019-01-17T09:56:47.462Z,97188.15
2019-01-17T09:59:20.046Z,97196.55
2019-01-17T10:01:51.162Z,97195.03
2019-01-17T10:04:26.583Z,97177.58
2019-01-17T10:06:55.185Z,97178.37
2019-01-17T10:09:26.407Z,97189.46
2019-01-17T10:11:57.563Z,97189.20
2019-01-17T10:14:28.820Z,97197.95
2019-01-17T10:17:41.152Z,97194.48
2019-01-17T10:20:40.324Z,97182.63
2019-01-17T10:24:14.449Z,97183.05
2019-01-17T10:27:13.003Z,97192.45
2019-01-17T10:29:50.806Z,97184.34
2019-01-17T10:33:08.824Z,97190.86
2019-01-17T10:36:07.963Z,97191.70
2019-01-17T10:38:58.308Z,97199.74
2019-01-17T10:41:46.080Z,97195.15
2019-01-17T10:44:49.499Z,97192.50
2019-01-17T10:48:00.419Z,97201.02
2019-01-17T10:51:01.861Z,97194.94
2019-01-17T10:53:55.612Z,97214.59
2019-01-17T10:57:07.264Z,97221.76
2019-01-17T11:00:06.557Z,97214.31
2019-01-17T11:03:17.513Z,97221.70
2019-01-17T11:06:24.301Z,97218.16
2019-01-17T11:09:48.464Z,97230.23
2019-01-17T11:12:36.001Z,97218.78
2019-01-17T11:15:25.690Z,97230.50
2019-01-17T11:18:24.688Z,97226.30
2019-01-17T11:21:51.689Z,97234.54
2019-01-17T11:25:00.569Z,97212.73
2019-01-17T11:28:14.831Z,97247.97
2019-01-17T11:31:16.410Z,97242.02
2019-01-17T11:34:14.349Z,97256.00
2019-01-17T11:37:24.780Z,97262.14
2019-01-17T11:40:35.754Z,97240.83
2019-01-17T11:43:42.531Z,97237.77
2019-01-17T11:46:45.727Z,97241.73
2019-01-17T11:50:10.966Z,97276.98
2019-01-17T11:53:17.498Z,97249.81
2019-01-17T11:56:20.470Z,97259.42
2019-01-17T11:59:37.444Z,97230.05
2019-01-17T12:03:07.637Z,97248.47
2019-01-17T12:05:38.753Z,97247.83
2019-01-17T12:08:10.005Z,97234.17
2019-01-17T12:10:41.479Z,97236.80
2019-01-17T12:13:17.408Z,97228.31
2019-01-17T12:15:47.632Z,97225.52
2019-01-17T12:18:18.892Z,97236.73
2019-01-17T12:20:53.696Z,97221.23
2019-01-17T12:23:24.805Z,97216.76
2019-01-17T12:25:56.129Z,97224.06
2019-01-17T12:28:27.183Z,97210.14
2019-01-17T12:30:58.507Z,97205.51
2019-01-17T12:33:29.755Z,97218.48
2019-01-17T12:36:01.263Z,97202.78
2019-01-17T12:38:32.972Z,97208.14
2019-01-17T12:41:04.762Z,97202.66
2019-01-17T12:43:36.898Z,97200.32
2019-01-17T12:46:08.325Z,97193.66
2019-01-17T12:48:39.398Z,97215.95
2019-01-17T12:51:10.895Z,97207.86
2019-01-17T12:53:42.154Z,97201.00
2019-01-17T12:56:13.217Z,97202.20
2019-01-17T12:58:44.892Z,97193.64
2019-01-17T13:01:16.230Z,97191.92
2019-01-17T13:03:47.545Z,97179.28
2019-01-17T13:06:18.794Z,97185.33
2019-01-17T13:08:50.118Z,97182.39
2019-01-17T13:11:21.685Z,97184.55
2019-01-17T13:13:52.941Z,97188.14
2019-01-17T13:16:24.025Z,97186.77
2019-01-17T13:18:55.217Z,97204.42
2019-01-17T13:21:26.542Z,97192.97
2019-01-17T13:23:57.700Z,97196.80
2019-01-17T13:26:29.310Z,97186.38
2019-01-17T13:29:00.688Z,97197.16
2019-01-17T13:31:31.925Z,97198.22
2019-01-17T13:34:02.963Z,97213.19
2019-01-17T13:36:40.141Z,97212.30
2019-01-17T13:39:08.514Z,97207.92
2019-01-17T13:41:39.678Z,97206.47
2019-01-17T13:44:11.732Z,97213.81
2019-01-17T13:46:42.936Z,97210.80
2019-01-17T13:49:13.973Z,97203.53
2019-01-17T13:51:45.191Z,97207.27
2019-01-17T13:54:17.179Z,97199.26
2019-01-17T13:56:48.838Z,97207.82
2019-01-17T13:59:19.865Z,97200.52
2019-01-17T14:01:50.920Z,97201.38
2019-01-17T14:04:23.402Z,97209.67
2019-01-17T14:06:54.577Z,97207.17
2019-01-17T14:09:25.684Z,97205.41
2019-01-17T14:11:57.049Z,97199.18
2019-01-17T14:14:28.359Z,97200.00
2019-01-17T14:16:59.454Z,97204.00
2019-01-17T14:19:30.542Z,97196.63
2019-01-17T14:22:03.434Z,97192.31
2019-01-17T14:24:34.802Z,97183.30
2019-01-17T14:27:06.030Z,97183.02
2019-01-17T14:29:37.217Z,97177.38
2019-01-17T14:32:08.407Z,97176.62
2019-01-17T14:34:39.485Z,97180.25
2019-01-17T14:37:10.459Z,97181.63
2019-01-17T14:39:41.946Z,97177.56
2019-01-17T14:42:13.824Z,97173.19
2019-01-17T14:44:45.750Z,97177.98
2019-01-17T14:47:16.735Z,97166.91
2019-01-17T14:49:47.865Z,97166.66
2019-01-17T14:52:20.035Z,97169.20
2019-01-17T14:54:51.784Z,97166.44
2019-01-17T14:57:22.946Z,97163.63
2019-01-17T14:59:54.144Z,97157.02
2019-01-17T15:02:25.458Z,97153.77
2019-01-17T15:04:56.547Z,97155.53
2019-01-17T15:07:28.349Z,97154.77
2019-01-17T15:09:59.337Z,97153.31
2019-01-17T15:12:33.193Z,97144.89
2019-01-17T15:15:04.961Z,97148.87
2019-01-17T15:17:36.284Z,97146.81
2019-01-17T15:20:10.911Z,97144.27
2019-01-17T15:22:42.593Z,97151.09
2019-01-17T15:25:13.945Z,97146.20
2019-01-17T15:27:45.739Z,97153.91
2019-01-17T15:30:19.367Z,97157.59
2019-01-17T15:32:51.094Z,97161.62
2019-01-17T15:35:22.989Z,97169.89
2019-01-17T15:37:54.475Z,97170.38
2019-01-17T15:40:27.862Z,97175.16
2019-01-17T15:42:59.403Z,97163.55
2019-01-17T15:45:30.940Z,97173.48
2019-01-17T15:48:02.427Z,97175.09
2019-01-17T15:50:35.043Z,97179.05
2019-01-17T15:53:06.201Z,97178.56
2019-01-17T15:55:37.645Z,97179.05
2019-01-17T15:58:08.990Z,97184.47
2019-01-17T16:00:40.164Z,97180.39
2019-01-17T16:03:11.337Z,97181.74
2019-01-17T16:05:43.211Z,97182.27
2019-01-17T16:08:15.045Z,97189.22
2019-01-17T16:10:47.467Z,97185.62
2019-01-17T16:13:18.739Z,97180.88
2019-01-17T16:15:50.204Z,97176.84
2019-01-17T16:18:21.798Z,97176.84
2019-01-17T16:20:53.107Z,97166.02
2019-01-17T16:23:24.556Z,97165.16
2019-01-17T16:25:55.899Z,97160.80
2019-01-17T16:28:27.307Z,97171.55
2019-01-17T16:30:58.531Z,97173.68
2019-01-17T16:33:29.967Z,97180.48
2019-01-17T16:36:01.046Z,97185.92
2019-01-17T16:38:32.765Z,97176.22
2019-01-17T16:41:04.270Z,97188.66
2019-01-17T16:43:37.206Z,97185.11
2019-01-17T16:46:08.517Z,97196.80
2019-01-17T16:48:40.227Z,97197.88
2019-01-17T16:51:11.426Z,97192.35
2019-01-17T16:53:43.044Z,97197.14
2019-01-17T16:56:14.402Z,97196.72
2019-01-17T16:58:45.564Z,97196.20
2019-01-17T17:01:16.861Z,97192.73
2019-01-17T17:03:48.096Z,97187.87
2019-01-17T17:06:19.090Z,97188.91
2019-01-17T17:08:50.754Z,97196.50
2019-01-17T17:11:22.613Z,97196.05
2019-01-17T17:13:53.769Z,97201.09
2019-01-17T17:16:26.206Z,97188.69
2019-01-17T17:18:57.384Z,97190.86
2019-01-17T17:21:28.590Z,97189.81
2019-01-17T17:24:00.151Z,97187.64
2019-01-17T17:26:31.400Z,97188.95
2019-01-17T17:29:02.507Z,97178.98
2019-01-17T17:31:33.677Z,97174.58
2019-01-17T17:34:06.155Z,97176.41
2019-01-17T17:36:37.425Z,97176.07
2019-01-17T17:39:09.986Z,97174.13
2019-01-17T17:41:41.070Z,97170.58
2019-01-17T17:44:12.462Z,97167.03
2019-01-17T17:46:43.909Z,97161.91
2019-01-17T17:49:15.138Z,97156.76
2019-01-17T17:51:46.268Z,97155.12
2019-01-17T17:54:17.342Z,97150.97
2019-01-17T17:56:50.138Z,97151.19
2019-01-17T17:59:21.188Z,97154.62
2019-01-17T18:01:59.022Z,97161.82
2019-01-17T18:04:30.261Z,97161.97
2019-01-17T18:07:01.335Z,97161.62
2019-01-17T18:09:32.589Z,97162.66
2019-01-17T18:12:04.244Z,97157.51
2019-01-17T18:14:35.736Z,97161.20
2019-01-17T18:17:07.336Z,97158.09
2019-01-17T18:19:38.512Z,97165.74
2019-01-17T18:22:09.675Z,97163.09
2019-01-17T18:24:41.099Z,97168.95
2019-01-17T18:27:12.313Z,97167.22
2019-01-17T18:29:43.466Z,97171.77
2019-01-17T18:32:14.852Z,97168.27
2019-01-17T18:34:46.080Z,97183.34
2019-01-17T18:37:17.466Z,97175.80
2019-01-17T18:39:48.559Z,97168.78
2019-01-17T18:42:19.638Z,97170.17
2019-01-17T18:44:51.176Z,97170.72
2019-01-17T18:47:22.223Z,97170.52
2019-01-17T18:49:56.750Z,97174.93
2019-01-17T18:52:27.902Z,97183.94
2019-01-17T18:54:58.964Z,97176.48
2019-01-17T18:57:30.174Z,97179.25
2019-01-17T19:00:01.433Z,97182.46
2019-01-17T19:02:32.507Z,97182.72
2019-01-17T19:05:04.041Z,97166.81
2019-01-17T19:07:35.541Z,97180.44
2019-01-17T19:10:06.941Z,97177.91
2019-01-17T19:12:38.140Z,97180.87
2019-01-17T19:15:11.021Z,97183.77
2019-01-17T19:17:42.615Z,97189.75
2019-01-17T19:20:15.153Z,97192.17
2019-01-17T19:22:46.562Z,97195.17
2019-01-17T19:25:18.030Z,97194.69
2019-01-17T19:27:48.998Z,97193.95
2019-01-17T19:30:22.126Z,97195.52
2019-01-17T19:32:55.017Z,97196.16
2019-01-17T19:35:26.440Z,97197.63
2019-01-17T19:37:58.112Z,97197.19
2019-01-17T19:40:30.743Z,97197.91
2019-01-17T19:43:02.670Z,97202.58
2019-01-17T19:45:34.091Z,97201.39
2019-01-17T19:48:05.887Z,97203.45
2019-01-17T19:50:38.710Z,97204.12
2019-01-17T19:53:11.246Z,97207.44
2019-01-17T19:55:42.800Z,97203.25
2019-01-17T19:58:14.138Z,97205.27
2019-01-17T20:00:45.217Z,97206.68
2019-01-17T20:03:16.403Z,97201.56
2019-01-17T20:05:47.779Z,97203.53
2019-01-17T20:08:18.789Z,97203.08
2019-01-17T20:10:51.099Z,97201.77
2019-01-17T20:13:22.437Z,97200.78
2019-01-17T20:15:53.542Z,97203.02
2019-01-17T20:18:27.152Z,97205.98
2019-01-17T20:20:58.306Z,97204.89
2019-01-17T20:23:29.429Z,97210.31
2019-01-17T20:26:00.641Z,97213.00
2019-01-17T20:28:35.716Z,97201.70
2019-01-17T20:31:06.106Z,97201.19
2019-01-17T20:33:37.380Z,97198.48
2019-01-17T20:36:09.135Z,97189.63
2019-01-17T20:38:40.412Z,97191.00
2019-01-17T20:41:11.779Z,97198.52
2019-01-17T20:43:44.164Z,97200.66
2019-01-17T20:46:15.461Z,97191.77
2019-01-17T20:48:46.777Z,97193.63
2019-01-17T20:51:18.259Z,97190.70
2019-01-17T20:53:49.513Z,97200.42
2019-01-17T20:56:20.561Z,97196.09
2019-01-17T20:58:51.920Z,97192.34
2019-01-17T21:01:30.568Z,97193.47
2019-01-17T21:04:01.801Z,97192.64
2019-01-17T21:06:33.071Z,97198.03
2019-01-17T21:09:07.313Z,97196.16
2019-01-17T21:11:40.037Z,97197.83
2019-01-17T21:14:11.402Z,97200.78
2019-01-17T21:16:42.910Z,97200.84
2019-01-17T21:19:13.892Z,97210.83
2019-01-17T21:21:45.206Z,97210.33
2019-01-17T21:24:16.462Z,97221.95
2019-01-17T21:26:47.611Z,97224.91
2019-01-17T21:29:19.744Z,97225.53
2019-01-17T21:31:51.050Z,97224.22
2019-01-17T21:34:22.238Z,97222.75
2019-01-17T21:36:53.916Z,97230.04
2019-01-17T21:39:26.540Z,97232.05
2019-01-17T21:41:58.003Z,97231.91
2019-01-17T21:44:29.631Z,97248.10
2019-01-17T21:47:01.002Z,97235.63
2019-01-17T21:49:33.724Z,97237.00
2019-01-17T21:52:05.152Z,97235.98
2019-01-17T21:54:38.482Z,97237.36
2019-01-17T21:57:09.802Z,97238.57
2019-01-17T21:59:41.192Z,97235.70
2019-01-17T22:02:12.673Z,97230.38
2019-01-17T22:04:44.227Z,97227.71
2019-01-17T22:07:15.423Z,97228.03
2019-01-17T22:09:46.822Z,97222.91
2019-01-17T22:12:18.192Z,97228.06
2019-01-17T22:14:49.802Z,97239.92
2019-01-17T22:17:21.257Z,97235.88
2019-01-17T22:19:52.704Z,97228.09
2019-01-17T22:22:24.339Z,97234.53
2019-01-17T22:24:55.751Z,97224.84
2019-01-17T22:27:27.216Z,97221.00
2019-01-17T22:29:58.637Z,97233.66
2019-01-17T22:32:29.794Z,97224.22
2019-01-17T22:35:03.044Z,97233.92
2019-01-17T22:37:34.460Z,97237.96
2019-01-17T22:40:06.715Z,97234.16
2019-01-17T22:42:37.927Z,97255.18
2019-01-17T22:45:14.877Z,97251.14
2019-01-17T22:47:46.537Z,97253.54
2019-01-17T22:50:18.476Z,97260.51
2019-01-17T22:52:50.528Z,97258.31
2019-01-17T22:55:22.231Z,97260.73
2019-01-17T22:57:54.334Z,97270.11
2019-01-17T23:00:54.337Z,97268.20
2019-01-17T23:03:46.002Z,97253.62
2019-01-17T23:06:17.351Z,97253.55
2019-01-17T23:08:48.786Z,97250.23
2019-01-17T23:11:20.160Z,97250.23
2019-01-17T23:13:53.528Z,97270.99
2019-01-17T23:16:24.952Z,97255.55
2019-01-17T23:18:56.450Z,97250.40
2019-01-17T23:21:27.826Z,97261.37
2019-01-17T23:24:02.232Z,97249.78
2019-01-17T23:26:33.395Z,97265.18
2019-01-17T23:29:05.384Z,97258.15
2019-01-17T23:31:36.582Z,97257.85
2019-01-17T23:34:07.649Z,97255.91
2019-01-17T23:36:39.934Z,97251.84
2019-01-17T23:39:12.040Z,97251.80
2019-01-17T23:41:43.393Z,97253.02
2019-01-17T23:44:14.705Z,97262.20
2019-01-17T23:46:47.232Z,97253.34
2019-01-17T23:49:18.354Z,97252.00
2019-01-17T23:51:50.332Z,97256.75
2019-01-17T23:54:21.708Z,97248.61
2019-01-17T23:56:53.104Z,97236.23
2019-01-17T23:59:24.384Z,97246.97
